sensor_id;sensor_type;location;lat;lon;timestamp;P1;durP1;ratioP1;P2;durP2;ratioP2
35919;SDS011;36160;53.370;-6.196;2023-02-28T00:00:18;4.80;;;1.88;;
35919;SDS011;36160;53.370;-6.196;2023-02-28T00:02:45;5.57;;;1.25;;
35919;SDS011;36160;53.370;-6.196;2023-02-28T00:05:12;3.78;;;1.85;;
35919;SDS011;36160;53.370;-6.196;2023-02-28T00:07:40;5.95;;;1.48;;
35919;SDS011;36160;53.370;-6.196;2023-02-28T00:10:07;5.15;;;1.40;;
35919;SDS011;36160;53.370;-6.196;2023-02-28T00:12:36;6.13;;;1.40;;
35919;SDS011;36160;53.370;-6.196;2023-02-28T00:15:07;8.60;;;1.80;;
35919;SDS011;36160;53.370;-6.196;2023-02-28T00:17:34;5.53;;;2.30;;
35919;SDS011;36160;53.370;-6.196;2023-02-28T00:20:00;8.90;;;1.95;;
35919;SDS011;36160;53.370;-6.196;2023-02-28T00:22:29;7.10;;;1.75;;
35919;SDS011;36160;53.370;-6.196;2023-02-28T00:24:55;9.95;;;1.92;;
35919;SDS011;36160;53.370;-6.196;2023-02-28T00:27:21;6.13;;;1.70;;
35919;SDS011;36160;53.370;-6.196;2023-02-28T00:29:46;9.07;;;1.80;;
35919;SDS011;36160;53.370;-6.196;2023-02-28T00:32:12;5.60;;;1.92;;
35919;SDS011;36160;53.370;-6.196;2023-02-28T00:34:38;6.03;;;1.70;;
35919;SDS011;36160;53.370;-6.196;2023-02-28T00:37:08;5.97;;;2.15;;
35919;SDS011;36160;53.370;-6.196;2023-02-28T00:39:36;8.07;;;2.15;;
35919;SDS011;36160;53.370;-6.196;2023-02-28T00:42:02;8.75;;;2.63;;
35919;SDS011;36160;53.370;-6.196;2023-02-28T00:44:29;7.60;;;2.30;;
35919;SDS011;36160;53.370;-6.196;2023-02-28T00:46:55;7.18;;;1.92;;
35919;SDS011;36160;53.370;-6.196;2023-02-28T00:49:22;10.23;;;2.22;;
35919;SDS011;36160;53.370;-6.196;2023-02-28T00:51:47;6.38;;;1.73;;
35919;SDS011;36160;53.370;-6.196;2023-02-28T00:54:13;9.27;;;1.70;;
35919;SDS011;36160;53.370;-6.196;2023-02-28T00:56:39;3.55;;;1.15;;
35919;SDS011;36160;53.370;-6.196;2023-02-28T00:59:05;9.18;;;2.03;;
35919;SDS011;36160;53.370;-6.196;2023-02-28T01:01:31;6.28;;;1.40;;
35919;SDS011;36160;53.370;-6.196;2023-02-28T01:03:57;5.75;;;1.52;;
35919;SDS011;36160;53.370;-6.196;2023-02-28T01:06:23;9.65;;;1.65;;
35919;SDS011;36160;53.370;-6.196;2023-02-28T01:08:49;4.10;;;1.33;;
35919;SDS011;36160;53.370;-6.196;2023-02-28T01:11:15;4.88;;;1.67;;
35919;SDS011;36160;53.370;-6.196;2023-02-28T01:13:42;5.70;;;2.05;;
35919;SDS011;36160;53.370;-6.196;2023-02-28T01:16:09;8.27;;;1.50;;
35919;SDS011;36160;53.370;-6.196;2023-02-28T01:18:35;9.77;;;1.30;;
35919;SDS011;36160;53.370;-6.196;2023-02-28T01:21:08;5.50;;;1.08;;
35919;SDS011;36160;53.370;-6.196;2023-02-28T01:23:37;14.30;;;2.53;;
35919;SDS011;36160;53.370;-6.196;2023-02-28T01:26:04;3.10;;;1.08;;
35919;SDS011;36160;53.370;-6.196;2023-02-28T01:28:40;3.22;;;1.00;;
35919;SDS011;36160;53.370;-6.196;2023-02-28T01:31:06;9.65;;;1.40;;
35919;SDS011;36160;53.370;-6.196;2023-02-28T01:33:33;8.35;;;2.20;;
35919;SDS011;36160;53.370;-6.196;2023-02-28T01:35:59;6.88;;;1.30;;
35919;SDS011;36160;53.370;-6.196;2023-02-28T01:38:26;2.97;;;0.95;;
35919;SDS011;36160;53.370;-6.196;2023-02-28T01:40:52;1.85;;;1.20;;
35919;SDS011;36160;53.370;-6.196;2023-02-28T01:43:22;2.85;;;1.20;;
35919;SDS011;36160;53.370;-6.196;2023-02-28T01:45:53;11.45;;;1.73;;
35919;SDS011;36160;53.370;-6.196;2023-02-28T01:48:21;4.97;;;1.05;;
35919;SDS011;36160;53.370;-6.196;2023-02-28T01:50:53;3.72;;;1.10;;
35919;SDS011;36160;53.370;-6.196;2023-02-28T01:53:21;2.92;;;1.08;;
35919;SDS011;36160;53.370;-6.196;2023-02-28T01:55:54;6.68;;;2.03;;
35919;SDS011;36160;53.370;-6.196;2023-02-28T01:58:20;4.63;;;1.50;;
35919;SDS011;36160;53.370;-6.196;2023-02-28T02:00:46;4.97;;;1.27;;
35919;SDS011;36160;53.370;-6.196;2023-02-28T02:03:13;3.97;;;1.55;;
35919;SDS011;36160;53.370;-6.196;2023-02-28T02:05:44;1.90;;;0.90;;
35919;SDS011;36160;53.370;-6.196;2023-02-28T02:08:13;2.55;;;0.93;;
35919;SDS011;36160;53.370;-6.196;2023-02-28T02:10:52;3.72;;;1.30;;
35919;SDS011;36160;53.370;-6.196;2023-02-28T02:24:58;3.25;;;1.27;;
35919;SDS011;36160;53.370;-6.196;2023-02-28T02:28:25;5.10;;;1.25;;
35919;SDS011;36160;53.370;-6.196;2023-02-28T02:30:41;1.88;;;1.10;;
35919;SDS011;36160;53.370;-6.196;2023-02-28T02:33:26;2.17;;;1.05;;
35919;SDS011;36160;53.370;-6.196;2023-02-28T02:36:57;4.80;;;1.35;;
35919;SDS011;36160;53.370;-6.196;2023-02-28T02:41:59;3.38;;;1.35;;
35919;SDS011;36160;53.370;-6.196;2023-02-28T02:44:31;3.72;;;2.70;;
35919;SDS011;36160;53.370;-6.196;2023-02-28T02:47:06;10.73;;;2.50;;
35919;SDS011;36160;53.370;-6.196;2023-02-28T02:49:36;6.22;;;1.20;;
35919;SDS011;36160;53.370;-6.196;2023-02-28T02:52:06;4.82;;;1.45;;
35919;SDS011;36160;53.370;-6.196;2023-02-28T02:54:38;6.25;;;1.30;;
35919;SDS011;36160;53.370;-6.196;2023-02-28T02:57:21;7.13;;;1.13;;
35919;SDS011;36160;53.370;-6.196;2023-02-28T02:59:52;6.97;;;1.23;;
35919;SDS011;36160;53.370;-6.196;2023-02-28T03:02:20;5.68;;;2.00;;
35919;SDS011;36160;53.370;-6.196;2023-02-28T03:04:57;4.68;;;1.30;;
35919;SDS011;36160;53.370;-6.196;2023-02-28T03:07:27;6.25;;;1.55;;
35919;SDS011;36160;53.370;-6.196;2023-02-28T03:09:54;7.00;;;1.30;;
35919;SDS011;36160;53.370;-6.196;2023-02-28T03:12:22;7.38;;;1.50;;
35919;SDS011;36160;53.370;-6.196;2023-02-28T03:17:54;7.13;;;1.20;;
35919;SDS011;36160;53.370;-6.196;2023-02-28T03:20:44;4.95;;;1.30;;
35919;SDS011;36160;53.370;-6.196;2023-02-28T03:23:35;6.82;;;1.52;;
35919;SDS011;36160;53.370;-6.196;2023-02-28T03:26:09;3.58;;;1.10;;
35919;SDS011;36160;53.370;-6.196;2023-02-28T03:31:14;2.58;;;1.10;;
35919;SDS011;36160;53.370;-6.196;2023-02-28T03:34:08;6.18;;;1.60;;
35919;SDS011;36160;53.370;-6.196;2023-02-28T03:36:43;8.60;;;1.45;;
35919;SDS011;36160;53.370;-6.196;2023-02-28T03:39:17;3.45;;;0.93;;
35919;SDS011;36160;53.370;-6.196;2023-02-28T03:41:48;6.72;;;1.05;;
35919;SDS011;36160;53.370;-6.196;2023-02-28T03:44:30;4.70;;;1.27;;
35919;SDS011;36160;53.370;-6.196;2023-02-28T03:47:02;5.72;;;1.73;;
35919;SDS011;36160;53.370;-6.196;2023-02-28T03:49:51;5.43;;;1.23;;
35919;SDS011;36160;53.370;-6.196;2023-02-28T03:52:23;7.45;;;1.35;;
35919;SDS011;36160;53.370;-6.196;2023-02-28T03:54:56;4.35;;;1.30;;
35919;SDS011;36160;53.370;-6.196;2023-02-28T03:57:37;10.50;;;1.13;;
35919;SDS011;36160;53.370;-6.196;2023-02-28T04:00:12;3.35;;;1.02;;
35919;SDS011;36160;53.370;-6.196;2023-02-28T04:02:42;6.15;;;1.42;;
35919;SDS011;36160;53.370;-6.196;2023-02-28T04:05:08;3.92;;;1.20;;
35919;SDS011;36160;53.370;-6.196;2023-02-28T04:07:34;4.60;;;1.33;;
35919;SDS011;36160;53.370;-6.196;2023-02-28T04:09:59;6.72;;;1.33;;
35919;SDS011;36160;53.370;-6.196;2023-02-28T04:12:25;5.72;;;1.25;;
35919;SDS011;36160;53.370;-6.196;2023-02-28T04:14:51;6.93;;;1.58;;
35919;SDS011;36160;53.370;-6.196;2023-02-28T04:17:16;8.55;;;1.10;;
35919;SDS011;36160;53.370;-6.196;2023-02-28T04:19:42;4.38;;;1.20;;
35919;SDS011;36160;53.370;-6.196;2023-02-28T04:22:08;4.00;;;1.30;;
35919;SDS011;36160;53.370;-6.196;2023-02-28T04:24:35;5.20;;;1.42;;
35919;SDS011;36160;53.370;-6.196;2023-02-28T04:27:01;5.45;;;1.15;;
35919;SDS011;36160;53.370;-6.196;2023-02-28T04:29:28;3.10;;;1.55;;
35919;SDS011;36160;53.370;-6.196;2023-02-28T04:31:56;5.55;;;1.52;;
35919;SDS011;36160;53.370;-6.196;2023-02-28T04:34:24;3.97;;;1.20;;
35919;SDS011;36160;53.370;-6.196;2023-02-28T04:36:50;3.40;;;1.33;;
35919;SDS011;36160;53.370;-6.196;2023-02-28T04:39:18;3.25;;;0.88;;
35919;SDS011;36160;53.370;-6.196;2023-02-28T04:41:45;5.65;;;1.95;;
35919;SDS011;36160;53.370;-6.196;2023-02-28T04:44:11;5.38;;;1.50;;
35919;SDS011;36160;53.370;-6.196;2023-02-28T04:46:36;3.83;;;1.10;;
35919;SDS011;36160;53.370;-6.196;2023-02-28T04:49:02;4.93;;;1.30;;
35919;SDS011;36160;53.370;-6.196;2023-02-28T04:51:28;4.72;;;1.38;;
35919;SDS011;36160;53.370;-6.196;2023-02-28T04:53:54;3.60;;;1.67;;
35919;SDS011;36160;53.370;-6.196;2023-02-28T04:56:20;7.70;;;1.23;;
35919;SDS011;36160;53.370;-6.196;2023-02-28T04:58:46;6.32;;;1.30;;
35919;SDS011;36160;53.370;-6.196;2023-02-28T05:03:53;8.60;;;1.80;;
35919;SDS011;36160;53.370;-6.196;2023-02-28T05:06:20;6.32;;;1.73;;
35919;SDS011;36160;53.370;-6.196;2023-02-28T05:08:48;4.75;;;1.20;;
35919;SDS011;36160;53.370;-6.196;2023-02-28T05:11:25;4.03;;;1.52;;
35919;SDS011;36160;53.370;-6.196;2023-02-28T05:13:59;3.60;;;1.00;;
35919;SDS011;36160;53.370;-6.196;2023-02-28T05:16:26;3.20;;;1.15;;
35919;SDS011;36160;53.370;-6.196;2023-02-28T05:18:51;8.27;;;1.40;;
35919;SDS011;36160;53.370;-6.196;2023-02-28T05:21:32;4.30;;;1.35;;
35919;SDS011;36160;53.370;-6.196;2023-02-28T05:24:01;3.55;;;1.30;;
35919;SDS011;36160;53.370;-6.196;2023-02-28T05:26:29;5.80;;;2.05;;
35919;SDS011;36160;53.370;-6.196;2023-02-28T05:28:55;5.72;;;1.45;;
35919;SDS011;36160;53.370;-6.196;2023-02-28T05:31:21;4.03;;;1.50;;
35919;SDS011;36160;53.370;-6.196;2023-02-28T05:33:47;2.15;;;1.05;;
35919;SDS011;36160;53.370;-6.196;2023-02-28T05:36:13;6.55;;;1.38;;
35919;SDS011;36160;53.370;-6.196;2023-02-28T05:38:39;4.15;;;1.55;;
35919;SDS011;36160;53.370;-6.196;2023-02-28T05:41:05;3.67;;;1.20;;
35919;SDS011;36160;53.370;-6.196;2023-02-28T05:43:32;4.22;;;1.92;;
35919;SDS011;36160;53.370;-6.196;2023-02-28T05:45:58;3.92;;;1.27;;
35919;SDS011;36160;53.370;-6.196;2023-02-28T05:48:23;5.75;;;1.30;;
35919;SDS011;36160;53.370;-6.196;2023-02-28T05:50:50;6.47;;;1.60;;
35919;SDS011;36160;53.370;-6.196;2023-02-28T05:53:16;2.25;;;1.10;;
35919;SDS011;36160;53.370;-6.196;2023-02-28T05:55:42;2.40;;;1.20;;
35919;SDS011;36160;53.370;-6.196;2023-02-28T05:58:07;1.92;;;1.10;;
35919;SDS011;36160;53.370;-6.196;2023-02-28T06:00:33;2.50;;;1.23;;
35919;SDS011;36160;53.370;-6.196;2023-02-28T06:02:59;4.47;;;1.67;;
35919;SDS011;36160;53.370;-6.196;2023-02-28T06:05:26;3.88;;;1.40;;
35919;SDS011;36160;53.370;-6.196;2023-02-28T06:07:52;3.58;;;1.50;;
35919;SDS011;36160;53.370;-6.196;2023-02-28T06:10:18;5.80;;;1.80;;
35919;SDS011;36160;53.370;-6.196;2023-02-28T06:12:44;3.70;;;1.48;;
35919;SDS011;36160;53.370;-6.196;2023-02-28T06:15:14;5.38;;;1.83;;
35919;SDS011;36160;53.370;-6.196;2023-02-28T06:17:41;5.00;;;1.92;;
35919;SDS011;36160;53.370;-6.196;2023-02-28T06:20:08;5.47;;;2.42;;
35919;SDS011;36160;53.370;-6.196;2023-02-28T06:22:35;7.07;;;1.98;;
35919;SDS011;36160;53.370;-6.196;2023-02-28T06:25:02;3.90;;;2.00;;
35919;SDS011;36160;53.370;-6.196;2023-02-28T06:27:28;5.88;;;1.80;;
35919;SDS011;36160;53.370;-6.196;2023-02-28T06:29:56;3.10;;;1.92;;
35919;SDS011;36160;53.370;-6.196;2023-02-28T06:32:21;7.25;;;2.33;;
35919;SDS011;36160;53.370;-6.196;2023-02-28T06:34:47;3.40;;;1.70;;
35919;SDS011;36160;53.370;-6.196;2023-02-28T06:37:14;4.10;;;1.55;;
35919;SDS011;36160;53.370;-6.196;2023-02-28T06:39:39;2.42;;;1.60;;
35919;SDS011;36160;53.370;-6.196;2023-02-28T06:42:05;4.43;;;1.80;;
35919;SDS011;36160;53.370;-6.196;2023-02-28T06:44:31;8.75;;;1.80;;
35919;SDS011;36160;53.370;-6.196;2023-02-28T06:47:00;3.00;;;2.00;;
35919;SDS011;36160;53.370;-6.196;2023-02-28T06:49:28;6.63;;;1.70;;
35919;SDS011;36160;53.370;-6.196;2023-02-28T06:51:54;5.82;;;1.67;;
35919;SDS011;36160;53.370;-6.196;2023-02-28T06:54:20;4.43;;;1.52;;
35919;SDS011;36160;53.370;-6.196;2023-02-28T06:56:46;7.47;;;1.48;;
35919;SDS011;36160;53.370;-6.196;2023-02-28T06:59:12;8.63;;;2.58;;
35919;SDS011;36160;53.370;-6.196;2023-02-28T07:01:38;1.30;;;1.17;;
35919;SDS011;36160;53.370;-6.196;2023-02-28T07:04:05;2.60;;;1.30;;
35919;SDS011;36160;53.370;-6.196;2023-02-28T07:06:31;7.95;;;1.08;;
35919;SDS011;36160;53.370;-6.196;2023-02-28T07:08:57;3.85;;;1.05;;
35919;SDS011;36160;53.370;-6.196;2023-02-28T07:11:24;6.80;;;1.33;;
35919;SDS011;36160;53.370;-6.196;2023-02-28T07:13:51;3.33;;;1.25;;
35919;SDS011;36160;53.370;-6.196;2023-02-28T07:16:18;11.40;;;3.78;;
35919;SDS011;36160;53.370;-6.196;2023-02-28T07:18:44;8.95;;;1.65;;
35919;SDS011;36160;53.370;-6.196;2023-02-28T07:21:10;4.43;;;1.30;;
35919;SDS011;36160;53.370;-6.196;2023-02-28T07:23:36;8.35;;;1.50;;
35919;SDS011;36160;53.370;-6.196;2023-02-28T07:26:03;7.82;;;1.40;;
35919;SDS011;36160;53.370;-6.196;2023-02-28T07:28:36;8.00;;;1.52;;
35919;SDS011;36160;53.370;-6.196;2023-02-28T07:31:04;3.97;;;1.52;;
35919;SDS011;36160;53.370;-6.196;2023-02-28T07:33:30;5.25;;;1.35;;
35919;SDS011;36160;53.370;-6.196;2023-02-28T07:36:06;12.98;;;2.88;;
35919;SDS011;36160;53.370;-6.196;2023-02-28T07:38:40;3.58;;;1.38;;
35919;SDS011;36160;53.370;-6.196;2023-02-28T07:41:07;6.15;;;1.63;;
35919;SDS011;36160;53.370;-6.196;2023-02-28T07:43:33;3.33;;;1.27;;
35919;SDS011;36160;53.370;-6.196;2023-02-28T07:46:06;4.78;;;1.50;;
35919;SDS011;36160;53.370;-6.196;2023-02-28T07:48:34;3.65;;;1.60;;
35919;SDS011;36160;53.370;-6.196;2023-02-28T07:51:00;5.28;;;1.48;;
35919;SDS011;36160;53.370;-6.196;2023-02-28T07:53:26;4.15;;;1.70;;
35919;SDS011;36160;53.370;-6.196;2023-02-28T07:55:56;4.03;;;1.40;;
35919;SDS011;36160;53.370;-6.196;2023-02-28T07:58:23;4.45;;;1.60;;
35919;SDS011;36160;53.370;-6.196;2023-02-28T08:00:50;4.13;;;1.02;;
35919;SDS011;36160;53.370;-6.196;2023-02-28T08:03:17;9.15;;;1.60;;
35919;SDS011;36160;53.370;-6.196;2023-02-28T08:05:43;2.70;;;1.20;;
35919;SDS011;36160;53.370;-6.196;2023-02-28T08:08:09;3.85;;;1.58;;
35919;SDS011;36160;53.370;-6.196;2023-02-28T08:10:35;3.88;;;1.30;;
35919;SDS011;36160;53.370;-6.196;2023-02-28T08:13:01;3.55;;;1.40;;
35919;SDS011;36160;53.370;-6.196;2023-02-28T08:15:27;7.25;;;1.25;;
35919;SDS011;36160;53.370;-6.196;2023-02-28T08:17:53;2.40;;;1.02;;
35919;SDS011;36160;53.370;-6.196;2023-02-28T08:20:21;5.03;;;1.52;;
35919;SDS011;36160;53.370;-6.196;2023-02-28T08:22:48;3.35;;;1.08;;
35919;SDS011;36160;53.370;-6.196;2023-02-28T08:25:15;8.20;;;1.85;;
35919;SDS011;36160;53.370;-6.196;2023-02-28T08:27:41;6.10;;;1.10;;
35919;SDS011;36160;53.370;-6.196;2023-02-28T08:30:07;2.22;;;0.90;;
35919;SDS011;36160;53.370;-6.196;2023-02-28T08:32:35;7.95;;;1.40;;
35919;SDS011;36160;53.370;-6.196;2023-02-28T08:35:01;3.70;;;1.20;;
35919;SDS011;36160;53.370;-6.196;2023-02-28T08:37:28;1.45;;;1.30;;
35919;SDS011;36160;53.370;-6.196;2023-02-28T08:39:54;2.65;;;1.50;;
35919;SDS011;36160;53.370;-6.196;2023-02-28T08:42:20;6.43;;;1.20;;
35919;SDS011;36160;53.370;-6.196;2023-02-28T08:44:46;6.85;;;1.15;;
35919;SDS011;36160;53.370;-6.196;2023-02-28T08:47:12;6.90;;;1.10;;
35919;SDS011;36160;53.370;-6.196;2023-02-28T08:49:38;3.17;;;1.08;;
35919;SDS011;36160;53.370;-6.196;2023-02-28T08:52:04;4.05;;;0.93;;
35919;SDS011;36160;53.370;-6.196;2023-02-28T08:54:30;5.70;;;1.55;;
35919;SDS011;36160;53.370;-6.196;2023-02-28T08:56:57;1.58;;;1.08;;
35919;SDS011;36160;53.370;-6.196;2023-02-28T08:59:22;1.10;;;0.80;;
35919;SDS011;36160;53.370;-6.196;2023-02-28T09:01:48;5.22;;;1.35;;
35919;SDS011;36160;53.370;-6.196;2023-02-28T09:04:14;9.63;;;1.45;;
35919;SDS011;36160;53.370;-6.196;2023-02-28T09:06:42;3.72;;;1.00;;
35919;SDS011;36160;53.370;-6.196;2023-02-28T09:09:09;6.88;;;1.95;;
35919;SDS011;36160;53.370;-6.196;2023-02-28T09:11:35;3.40;;;1.08;;
35919;SDS011;36160;53.370;-6.196;2023-02-28T09:14:01;3.58;;;0.77;;
35919;SDS011;36160;53.370;-6.196;2023-02-28T09:16:28;2.88;;;1.17;;
35919;SDS011;36160;53.370;-6.196;2023-02-28T09:18:55;4.10;;;1.08;;
35919;SDS011;36160;53.370;-6.196;2023-02-28T09:21:21;4.93;;;1.13;;
35919;SDS011;36160;53.370;-6.196;2023-02-28T09:23:48;3.47;;;0.80;;
35919;SDS011;36160;53.370;-6.196;2023-02-28T09:26:19;5.57;;;1.08;;
35919;SDS011;36160;53.370;-6.196;2023-02-28T09:28:49;6.13;;;0.93;;
35919;SDS011;36160;53.370;-6.196;2023-02-28T09:31:20;2.25;;;1.23;;
35919;SDS011;36160;53.370;-6.196;2023-02-28T09:33:52;3.90;;;0.90;;
35919;SDS011;36160;53.370;-6.196;2023-02-28T09:36:19;4.68;;;1.05;;
35919;SDS011;36160;53.370;-6.196;2023-02-28T09:38:45;1.88;;;1.17;;
35919;SDS011;36160;53.370;-6.196;2023-02-28T09:41:15;2.67;;;1.02;;
35919;SDS011;36160;53.370;-6.196;2023-02-28T09:43:45;4.13;;;1.08;;
35919;SDS011;36160;53.370;-6.196;2023-02-28T09:46:26;3.57;;;1.07;;
35919;SDS011;36160;53.370;-6.196;2023-02-28T09:49:06;4.05;;;1.23;;
35919;SDS011;36160;53.370;-6.196;2023-02-28T09:51:49;3.40;;;1.40;;
35919;SDS011;36160;53.370;-6.196;2023-02-28T09:54:20;1.17;;;0.85;;
35919;SDS011;36160;53.370;-6.196;2023-02-28T09:59:28;1.25;;;0.80;;
35919;SDS011;36160;53.370;-6.196;2023-02-28T10:10:27;4.88;;;1.00;;
35919;SDS011;36160;53.370;-6.196;2023-02-28T10:12:57;3.70;;;0.88;;
35919;SDS011;36160;53.370;-6.196;2023-02-28T10:15:29;6.50;;;1.20;;
35919;SDS011;36160;53.370;-6.196;2023-02-28T10:17:58;4.05;;;0.88;;
35919;SDS011;36160;53.370;-6.196;2023-02-28T10:20:30;19.02;;;2.15;;
35919;SDS011;36160;53.370;-6.196;2023-02-28T10:23:07;5.97;;;1.00;;
35919;SDS011;36160;53.370;-6.196;2023-02-28T10:26:00;1.80;;;0.70;;
35919;SDS011;36160;53.370;-6.196;2023-02-28T10:28:30;4.70;;;0.82;;
35919;SDS011;36160;53.370;-6.196;2023-02-28T10:30:57;2.22;;;1.42;;
35919;SDS011;36160;53.370;-6.196;2023-02-28T10:35:55;1.48;;;0.85;;
35919;SDS011;36160;53.370;-6.196;2023-02-28T10:38:25;1.75;;;0.60;;
35919;SDS011;36160;53.370;-6.196;2023-02-28T10:41:03;1.27;;;0.80;;
35919;SDS011;36160;53.370;-6.196;2023-02-28T10:48:39;1.38;;;0.88;;
35919;SDS011;36160;53.370;-6.196;2023-02-28T10:51:08;4.60;;;0.88;;
35919;SDS011;36160;53.370;-6.196;2023-02-28T11:01:39;4.00;;;1.05;;
35919;SDS011;36160;53.370;-6.196;2023-02-28T11:07:05;1.80;;;1.10;;
35919;SDS011;36160;53.370;-6.196;2023-02-28T11:09:41;2.80;;;1.13;;
35919;SDS011;36160;53.370;-6.196;2023-02-28T11:17:54;2.58;;;1.13;;
35919;SDS011;36160;53.370;-6.196;2023-02-28T11:20:30;4.03;;;0.80;;
35919;SDS011;36160;53.370;-6.196;2023-02-28T11:23:00;2.55;;;0.85;;
35919;SDS011;36160;53.370;-6.196;2023-02-28T11:25:35;3.33;;;1.08;;
35919;SDS011;36160;53.370;-6.196;2023-02-28T11:28:06;3.22;;;0.70;;
35919;SDS011;36160;53.370;-6.196;2023-02-28T11:36:24;11.90;;;2.55;;
35919;SDS011;36160;53.370;-6.196;2023-02-28T11:38:59;2.45;;;1.00;;
35919;SDS011;36160;53.370;-6.196;2023-02-28T11:52:53;2.42;;;1.35;;
35919;SDS011;36160;53.370;-6.196;2023-02-28T11:55:42;4.28;;;1.00;;
35919;SDS011;36160;53.370;-6.196;2023-02-28T12:06:49;3.15;;;1.00;;
35919;SDS011;36160;53.370;-6.196;2023-02-28T12:09:32;1.30;;;0.98;;
35919;SDS011;36160;53.370;-6.196;2023-02-28T12:25:24;2.80;;;1.10;;
35919;SDS011;36160;53.370;-6.196;2023-02-28T12:27:56;1.15;;;0.80;;
35919;SDS011;36160;53.370;-6.196;2023-02-28T12:30:23;7.25;;;1.55;;
35919;SDS011;36160;53.370;-6.196;2023-02-28T12:32:58;7.45;;;1.27;;
35919;SDS011;36160;53.370;-6.196;2023-02-28T12:35:40;5.47;;;1.52;;
35919;SDS011;36160;53.370;-6.196;2023-02-28T12:38:16;1.85;;;1.08;;
35919;SDS011;36160;53.370;-6.196;2023-02-28T12:41:00;3.25;;;1.30;;
35919;SDS011;36160;53.370;-6.196;2023-02-28T12:43:32;5.05;;;1.00;;
35919;SDS011;36160;53.370;-6.196;2023-02-28T12:46:03;5.32;;;1.02;;
35919;SDS011;36160;53.370;-6.196;2023-02-28T12:51:10;4.35;;;1.35;;
35919;SDS011;36160;53.370;-6.196;2023-02-28T13:10:19;4.18;;;1.20;;
35919;SDS011;36160;53.370;-6.196;2023-02-28T13:12:49;5.05;;;1.67;;
35919;SDS011;36160;53.370;-6.196;2023-02-28T13:17:47;5.55;;;2.05;;
35919;SDS011;36160;53.370;-6.196;2023-02-28T13:20:19;2.63;;;1.33;;
35919;SDS011;36160;53.370;-6.196;2023-02-28T13:22:46;2.88;;;1.20;;
35919;SDS011;36160;53.370;-6.196;2023-02-28T13:27:49;4.93;;;1.55;;
35919;SDS011;36160;53.370;-6.196;2023-02-28T13:35:45;5.95;;;1.70;;
35919;SDS011;36160;53.370;-6.196;2023-02-28T13:47:21;2.65;;;1.27;;
35919;SDS011;36160;53.370;-6.196;2023-02-28T13:49:27;7.65;;;1.50;;
35919;SDS011;36160;53.370;-6.196;2023-02-28T13:52:02;6.97;;;1.70;;
35919;SDS011;36160;53.370;-6.196;2023-02-28T13:57:07;7.25;;;1.80;;
35919;SDS011;36160;53.370;-6.196;2023-02-28T14:02:29;10.30;;;1.80;;
35919;SDS011;36160;53.370;-6.196;2023-02-28T14:05:15;3.10;;;1.85;;
35919;SDS011;36160;53.370;-6.196;2023-02-28T14:07:51;4.15;;;1.50;;
35919;SDS011;36160;53.370;-6.196;2023-02-28T14:10:39;2.45;;;1.52;;
35919;SDS011;36160;53.370;-6.196;2023-02-28T14:16:09;5.70;;;1.40;;
35919;SDS011;36160;53.370;-6.196;2023-02-28T14:19:02;4.47;;;1.25;;
35919;SDS011;36160;53.370;-6.196;2023-02-28T14:21:36;6.40;;;2.00;;
35919;SDS011;36160;53.370;-6.196;2023-02-28T14:26:58;6.95;;;1.50;;
35919;SDS011;36160;53.370;-6.196;2023-02-28T14:37:37;4.78;;;1.55;;
35919;SDS011;36160;53.370;-6.196;2023-02-28T14:43:04;4.07;;;1.65;;
35919;SDS011;36160;53.370;-6.196;2023-02-28T14:45:32;7.90;;;1.73;;
35919;SDS011;36160;53.370;-6.196;2023-02-28T14:48:02;7.13;;;2.05;;
35919;SDS011;36160;53.370;-6.196;2023-02-28T14:53:01;3.75;;;1.58;;
35919;SDS011;36160;53.370;-6.196;2023-02-28T14:55:31;6.40;;;2.08;;
35919;SDS011;36160;53.370;-6.196;2023-02-28T14:58:05;3.42;;;1.33;;
35919;SDS011;36160;53.370;-6.196;2023-02-28T15:00:35;3.00;;;1.38;;
35919;SDS011;36160;53.370;-6.196;2023-02-28T15:03:31;11.07;;;1.67;;
35919;SDS011;36160;53.370;-6.196;2023-02-28T15:06:02;8.48;;;2.65;;
35919;SDS011;36160;53.370;-6.196;2023-02-28T15:08:30;4.95;;;1.90;;
35919;SDS011;36160;53.370;-6.196;2023-02-28T15:13:48;6.07;;;1.77;;
35919;SDS011;36160;53.370;-6.196;2023-02-28T15:19:04;6.68;;;1.80;;
35919;SDS011;36160;53.370;-6.196;2023-02-28T15:21:41;5.00;;;2.00;;
35919;SDS011;36160;53.370;-6.196;2023-02-28T15:24:17;6.90;;;2.00;;
35919;SDS011;36160;53.370;-6.196;2023-02-28T15:26:58;5.72;;;1.70;;
35919;SDS011;36160;53.370;-6.196;2023-02-28T15:29:26;5.75;;;1.67;;
35919;SDS011;36160;53.370;-6.196;2023-02-28T15:32:00;8.48;;;2.50;;
35919;SDS011;36160;53.370;-6.196;2023-02-28T15:39:58;6.78;;;2.00;;
35919;SDS011;36160;53.370;-6.196;2023-02-28T15:42:30;4.15;;;1.60;;
35919;SDS011;36160;53.370;-6.196;2023-02-28T15:44:56;10.68;;;2.25;;
35919;SDS011;36160;53.370;-6.196;2023-02-28T15:47:25;3.97;;;1.70;;
35919;SDS011;36160;53.370;-6.196;2023-02-28T15:49:54;6.93;;;2.33;;
35919;SDS011;36160;53.370;-6.196;2023-02-28T15:52:38;4.90;;;1.70;;
35919;SDS011;36160;53.370;-6.196;2023-02-28T15:55:11;3.53;;;1.52;;
35919;SDS011;36160;53.370;-6.196;2023-02-28T15:57:46;5.75;;;1.67;;
35919;SDS011;36160;53.370;-6.196;2023-02-28T16:00:18;11.70;;;2.28;;
35919;SDS011;36160;53.370;-6.196;2023-02-28T16:02:46;9.45;;;1.92;;
35919;SDS011;36160;53.370;-6.196;2023-02-28T16:05:23;5.18;;;2.08;;
35919;SDS011;36160;53.370;-6.196;2023-02-28T16:07:53;4.95;;;1.90;;
35919;SDS011;36160;53.370;-6.196;2023-02-28T16:10:20;4.03;;;2.15;;
35919;SDS011;36160;53.370;-6.196;2023-02-28T16:12:48;2.80;;;1.88;;
35919;SDS011;36160;53.370;-6.196;2023-02-28T16:17:46;5.68;;;2.38;;
35919;SDS011;36160;53.370;-6.196;2023-02-28T16:22:39;3.40;;;2.20;;
35919;SDS011;36160;53.370;-6.196;2023-02-28T16:25:07;5.35;;;2.20;;
35919;SDS011;36160;53.370;-6.196;2023-02-28T16:27:37;2.55;;;1.50;;
35919;SDS011;36160;53.370;-6.196;2023-02-28T16:30:04;4.35;;;2.50;;
35919;SDS011;36160;53.370;-6.196;2023-02-28T16:32:41;2.78;;;2.15;;
35919;SDS011;36160;53.370;-6.196;2023-02-28T16:35:09;7.32;;;3.75;;
35919;SDS011;36160;53.370;-6.196;2023-02-28T16:37:35;4.72;;;3.17;;
35919;SDS011;36160;53.370;-6.196;2023-02-28T16:40:02;4.88;;;2.00;;
35919;SDS011;36160;53.370;-6.196;2023-02-28T16:42:28;3.85;;;2.10;;
35919;SDS011;36160;53.370;-6.196;2023-02-28T16:44:56;4.53;;;2.40;;
35919;SDS011;36160;53.370;-6.196;2023-02-28T16:47:22;7.18;;;2.42;;
35919;SDS011;36160;53.370;-6.196;2023-02-28T16:49:48;3.83;;;2.78;;
35919;SDS011;36160;53.370;-6.196;2023-02-28T16:52:14;5.85;;;2.78;;
35919;SDS011;36160;53.370;-6.196;2023-02-28T16:54:41;8.10;;;3.08;;
35919;SDS011;36160;53.370;-6.196;2023-02-28T16:57:13;11.70;;;3.05;;
35919;SDS011;36160;53.370;-6.196;2023-02-28T16:59:46;6.43;;;3.65;;
35919;SDS011;36160;53.370;-6.196;2023-02-28T17:02:16;8.25;;;3.53;;
35919;SDS011;36160;53.370;-6.196;2023-02-28T17:04:44;10.02;;;3.80;;
35919;SDS011;36160;53.370;-6.196;2023-02-28T17:07:11;10.30;;;3.72;;
35919;SDS011;36160;53.370;-6.196;2023-02-28T17:09:40;7.53;;;4.22;;
35919;SDS011;36160;53.370;-6.196;2023-02-28T17:12:06;6.72;;;2.75;;
35919;SDS011;36160;53.370;-6.196;2023-02-28T17:14:33;6.40;;;2.85;;
35919;SDS011;36160;53.370;-6.196;2023-02-28T17:16:59;7.20;;;2.80;;
35919;SDS011;36160;53.370;-6.196;2023-02-28T17:19:26;7.68;;;2.58;;
35919;SDS011;36160;53.370;-6.196;2023-02-28T17:21:53;9.27;;;2.65;;
35919;SDS011;36160;53.370;-6.196;2023-02-28T17:24:18;6.50;;;2.45;;
35919;SDS011;36160;53.370;-6.196;2023-02-28T17:26:44;6.82;;;2.30;;
35919;SDS011;36160;53.370;-6.196;2023-02-28T17:29:14;6.40;;;2.20;;
35919;SDS011;36160;53.370;-6.196;2023-02-28T17:31:42;4.97;;;2.28;;
35919;SDS011;36160;53.370;-6.196;2023-02-28T17:34:08;6.53;;;2.35;;
35919;SDS011;36160;53.370;-6.196;2023-02-28T17:36:34;4.25;;;2.30;;
35919;SDS011;36160;53.370;-6.196;2023-02-28T17:39:02;9.20;;;2.42;;
35919;SDS011;36160;53.370;-6.196;2023-02-28T17:41:30;6.10;;;2.10;;
35919;SDS011;36160;53.370;-6.196;2023-02-28T17:43:57;4.25;;;2.65;;